createdAt,value
2022-11-14T00:03:16.956Z,18.02
2022-11-14T00:08:22.385Z,18.01
2022-11-14T00:13:26.858Z,17.99
2022-11-14T00:18:31.648Z,17.99
2022-11-14T00:23:36.054Z,17.98
2022-11-14T00:28:40.565Z,17.97
2022-11-14T00:33:45.707Z,17.96
2022-11-14T00:38:52.605Z,17.94
2022-11-14T00:43:57.167Z,17.95
2022-11-14T00:49:02.013Z,17.94
2022-11-14T00:54:06.694Z,17.91
2022-11-14T00:59:11.195Z,17.91
2022-11-14T01:04:15.467Z,17.91
2022-11-14T01:09:20.022Z,17.90
2022-11-14T01:14:24.575Z,17.89
2022-11-14T01:19:29.275Z,17.87
2022-11-14T01:24:34.018Z,17.86
2022-11-14T01:29:38.233Z,17.86
2022-11-14T01:34:42.706Z,17.83
2022-11-14T01:39:47.856Z,17.83
2022-11-14T01:44:53.110Z,17.83
2022-11-14T01:49:58.887Z,17.81
2022-11-14T01:55:05.489Z,17.79
2022-11-14T02:00:11.564Z,17.79
2022-11-14T02:05:16.833Z,17.78
2022-11-14T02:10:21.714Z,17.77
2022-11-14T02:15:27.198Z,17.76
2022-11-14T02:20:35.274Z,17.74
2022-11-14T02:25:40.334Z,17.74
2022-11-14T02:30:44.784Z,17.73
2022-11-14T02:35:49.494Z,17.72
2022-11-14T02:40:53.985Z,17.70
2022-11-14T02:46:02.903Z,17.71
2022-11-14T02:51:10.209Z,17.70
2022-11-14T02:56:14.857Z,17.68
2022-11-14T03:01:21.268Z,17.68
2022-11-14T03:06:26.504Z,17.67
2022-11-14T03:11:31.134Z,17.66
2022-11-14T03:16:35.376Z,17.64
2022-11-14T03:21:39.674Z,17.61
2022-11-14T03:26:44.014Z,17.61
2022-11-14T03:31:48.580Z,17.61
2022-11-14T03:36:52.909Z,17.59
2022-11-14T03:41:57.519Z,17.59
2022-11-14T03:47:02.049Z,17.60
2022-11-14T03:52:06.908Z,17.57
2022-11-14T03:57:11.275Z,17.57
2022-11-14T04:02:15.726Z,17.55
2022-11-14T04:07:20.391Z,17.54
2022-11-14T04:12:24.726Z,17.53
2022-11-14T04:17:29.186Z,17.52
2022-11-14T04:22:33.545Z,17.52
2022-11-14T04:27:37.880Z,17.52
2022-11-14T04:32:42.256Z,17.51
2022-11-14T04:37:46.561Z,17.49
2022-11-14T04:42:51.285Z,17.48
2022-11-14T04:47:55.771Z,17.45
2022-11-14T04:53:00.148Z,17.44
2022-11-14T04:58:04.587Z,17.45
2022-11-14T05:03:09.111Z,17.43
2022-11-14T05:08:13.325Z,17.42
2022-11-14T05:13:17.445Z,17.42
2022-11-14T05:18:21.573Z,17.41
2022-11-14T05:23:25.959Z,17.40
2022-11-14T05:28:30.618Z,17.37
2022-11-14T05:33:35.416Z,17.39
2022-11-14T05:38:39.926Z,17.38
2022-11-14T05:43:44.768Z,17.37
2022-11-14T05:48:49.555Z,17.36
2022-11-14T05:53:54.583Z,17.35
2022-11-14T05:58:58.989Z,17.33
2022-11-14T06:04:06.089Z,17.33
2022-11-14T06:09:10.687Z,17.32
2022-11-14T06:14:15.245Z,17.30
2022-11-14T06:19:21.539Z,17.30
2022-11-14T06:24:25.946Z,17.31
2022-11-14T06:29:35.228Z,17.29
2022-11-14T06:34:40.101Z,17.28
2022-11-14T06:39:44.524Z,17.27
2022-11-14T06:44:49.135Z,17.26
2022-11-14T06:49:53.667Z,17.27
2022-11-14T06:54:58.528Z,17.27
2022-11-14T07:00:04.234Z,17.23
2022-11-14T07:05:08.895Z,17.23
2022-11-14T07:10:13.618Z,17.23
2022-11-14T07:15:18.186Z,17.22
2022-11-14T07:20:22.545Z,17.20
2022-11-14T07:25:27.190Z,17.20
2022-11-14T07:30:31.776Z,17.19
2022-11-14T07:35:35.919Z,17.19
2022-11-14T07:40:40.375Z,17.18
2022-11-14T07:45:44.459Z,17.18
2022-11-14T07:50:49.055Z,17.18
2022-11-14T07:55:53.749Z,17.18
2022-11-14T08:01:00.709Z,17.18
2022-11-14T08:06:05.878Z,17.17
2022-11-14T08:11:10.255Z,17.14
2022-11-14T08:16:14.518Z,17.13
2022-11-14T08:21:18.715Z,17.14
2022-11-14T08:26:23.245Z,17.14
2022-11-14T08:31:27.945Z,17.12
2022-11-14T08:36:32.444Z,17.11
2022-11-14T08:41:37.095Z,17.11
2022-11-14T08:46:41.346Z,17.09
2022-11-14T08:51:45.663Z,17.08
2022-11-14T08:56:50.318Z,17.08
2022-11-14T09:01:55.240Z,17.09
2022-11-14T09:06:59.757Z,17.08
2022-11-14T09:12:04.279Z,17.09
2022-11-14T09:17:08.909Z,17.07
2022-11-14T09:22:13.347Z,17.05
2022-11-14T09:27:17.739Z,17.04
2022-11-14T09:32:21.926Z,17.05
2022-11-14T09:37:26.427Z,17.04
2022-11-14T09:42:37.925Z,17.03
2022-11-14T09:47:43.595Z,17.01
2022-11-14T09:52:50.994Z,17.01
2022-11-14T09:57:56.436Z,17.01
2022-11-14T10:03:08.475Z,17.00
2022-11-14T10:08:21.204Z,17.02
2022-11-14T10:13:38.322Z,17.01
2022-11-14T10:18:58.864Z,17.00
2022-11-14T10:24:07.081Z,17.01
2022-11-14T10:29:25.644Z,16.99
2022-11-14T10:34:32.015Z,17.00
2022-11-14T10:39:40.113Z,17.00
2022-11-14T10:44:50.536Z,16.97
2022-11-14T10:49:58.136Z,16.97
2022-11-14T10:55:06.671Z,16.97
2022-11-14T11:00:14.345Z,16.95
2022-11-14T11:05:19.240Z,16.95
2022-11-14T11:10:42.560Z,16.94
2022-11-14T11:15:47.296Z,16.94
2022-11-14T11:21:03.155Z,16.93
2022-11-14T11:26:08.846Z,16.94
2022-11-14T11:31:13.580Z,16.94
2022-11-14T11:36:18.885Z,16.92
2022-11-14T11:46:54.347Z,16.92
2022-11-14T11:52:03.975Z,16.92
2022-11-14T11:57:17.132Z,16.93
2022-11-14T12:02:26.647Z,16.96
2022-11-14T12:07:39.746Z,16.93
2022-11-14T12:12:58.911Z,16.91
2022-11-14T12:18:14.085Z,16.93
2022-11-14T12:23:32.088Z,16.92
2022-11-14T12:28:42.715Z,16.90
2022-11-14T12:33:50.576Z,16.89
2022-11-14T12:38:55.330Z,16.89
2022-11-14T12:44:17.587Z,16.88
2022-11-14T12:49:57.397Z,16.86
2022-11-14T12:55:01.669Z,16.88
2022-11-14T13:00:08.594Z,16.87
2022-11-14T13:05:23.320Z,16.85
2022-11-14T13:10:30.928Z,16.85
2022-11-14T13:15:55.837Z,16.82
2022-11-14T13:21:21.875Z,16.83
2022-11-14T13:26:55.805Z,16.82
2022-11-14T13:32:00.028Z,16.83
2022-11-14T13:37:09.191Z,16.82
2022-11-14T13:42:19.145Z,16.79
2022-11-14T13:47:40.479Z,16.79
2022-11-14T13:52:45.889Z,16.79
2022-11-14T13:57:58.566Z,16.78
2022-11-14T14:03:10.455Z,16.75
2022-11-14T14:08:20.919Z,16.75
2022-11-14T14:13:33.032Z,16.74
2022-11-14T14:18:44.805Z,16.75
2022-11-14T14:23:53.770Z,16.73
2022-11-14T14:29:05.935Z,16.71
2022-11-14T14:34:23.965Z,16.70
2022-11-14T14:39:29.315Z,16.69
2022-11-14T14:44:37.918Z,16.68
2022-11-14T14:49:42.396Z,16.67
2022-11-14T14:54:54.335Z,16.66
2022-11-14T15:00:02.207Z,16.64
2022-11-14T15:05:07.358Z,16.63
2022-11-14T15:10:20.976Z,16.62
2022-11-14T15:15:26.256Z,16.62
2022-11-14T15:20:30.828Z,16.60
2022-11-14T15:25:35.226Z,16.58
2022-11-14T15:30:39.745Z,16.58
2022-11-14T15:35:44.139Z,16.55
2022-11-14T15:41:02.232Z,16.54
2022-11-14T15:46:26.976Z,16.54
2022-11-14T15:51:44.926Z,16.55
2022-11-14T15:56:49.293Z,16.52
2022-11-14T16:01:55.510Z,16.50
2022-11-14T16:07:00.298Z,16.49
2022-11-14T16:12:05.615Z,16.47
2022-11-14T16:17:13.007Z,16.46
2022-11-14T16:22:18.150Z,16.45
2022-11-14T16:27:22.645Z,16.44
2022-11-14T16:32:28.013Z,16.43
2022-11-14T16:37:32.399Z,16.42
2022-11-14T16:42:36.836Z,16.40
2022-11-14T16:47:40.985Z,16.40
2022-11-14T16:52:45.267Z,16.38
2022-11-14T16:57:49.951Z,16.39
2022-11-14T17:02:54.370Z,16.38
2022-11-14T17:07:58.847Z,16.36
2022-11-14T17:13:03.186Z,16.36
2022-11-14T17:18:08.037Z,16.36
2022-11-14T17:23:12.527Z,16.34
2022-11-14T17:28:17.056Z,16.33
2022-11-14T17:33:21.377Z,16.32
2022-11-14T17:38:25.866Z,16.32
2022-11-14T17:43:35.764Z,16.31
2022-11-14T17:48:42.939Z,16.32
2022-11-14T17:53:47.161Z,16.30
2022-11-14T17:58:52.033Z,16.29
2022-11-14T18:04:00.503Z,16.27
2022-11-14T18:09:14.072Z,16.28
2022-11-14T18:14:19.568Z,16.27
2022-11-14T18:19:24.037Z,16.28
2022-11-14T18:24:28.507Z,16.27
2022-11-14T18:29:32.987Z,16.26
2022-11-14T18:34:37.326Z,16.24
2022-11-14T18:39:42.137Z,16.22
2022-11-14T18:44:46.471Z,16.22
2022-11-14T18:49:51.032Z,16.21
2022-11-14T18:54:55.786Z,16.20
2022-11-14T19:00:00.113Z,16.20
2022-11-14T19:05:04.656Z,16.18
2022-11-14T19:10:09.976Z,16.18
2022-11-14T19:15:14.355Z,16.17
2022-11-14T19:20:19.386Z,16.16
2022-11-14T19:25:24.287Z,16.16
2022-11-14T19:30:29.224Z,16.15
2022-11-14T19:35:34.030Z,16.13
2022-11-14T19:40:38.697Z,16.14
2022-11-14T19:45:43.189Z,16.15
2022-11-14T19:50:47.809Z,16.16
2022-11-14T19:55:52.285Z,16.13
2022-11-14T20:01:01.649Z,16.13
2022-11-14T20:06:14.044Z,16.09
2022-11-14T20:11:18.779Z,16.12
2022-11-14T20:16:23.971Z,16.12
2022-11-14T20:21:29.425Z,16.11
2022-11-14T20:26:34.545Z,16.10
2022-11-14T20:31:39.261Z,16.10
2022-11-14T20:37:09.245Z,16.09
2022-11-14T20:42:09.355Z,16.09
2022-11-14T20:47:14.195Z,16.09
2022-11-14T20:52:18.931Z,16.06
2022-11-14T20:57:23.409Z,16.04
2022-11-14T21:02:28.175Z,16.04
2022-11-14T21:07:32.610Z,16.05
2022-11-14T21:12:36.963Z,16.03
2022-11-14T21:17:41.336Z,16.02
2022-11-14T21:22:45.565Z,16.02
2022-11-14T21:27:49.805Z,16.01
2022-11-14T21:32:54.725Z,16.01
2022-11-14T21:37:59.345Z,15.98
2022-11-14T21:43:03.805Z,15.98
2022-11-14T21:48:08.217Z,15.98
2022-11-14T21:53:15.474Z,15.96
2022-11-14T21:58:19.706Z,15.96
2022-11-14T22:03:41.957Z,15.96
2022-11-14T22:08:46.545Z,15.96
2022-11-14T22:13:50.847Z,15.95
2022-11-14T22:19:00.495Z,15.93
2022-11-14T22:24:09.632Z,15.91
2022-11-14T22:29:13.959Z,15.92
2022-11-14T22:34:17.962Z,15.91
2022-11-14T22:39:22.192Z,15.92
2022-11-14T22:44:26.392Z,15.92
2022-11-14T22:49:30.992Z,15.89
2022-11-14T22:54:35.548Z,15.91
2022-11-14T22:59:39.754Z,15.90
2022-11-14T23:04:44.242Z,15.89
2022-11-14T23:09:48.680Z,15.88
2022-11-14T23:14:53.021Z,15.87
2022-11-14T23:19:57.404Z,15.87
2022-11-14T23:25:01.893Z,15.86
2022-11-14T23:35:29.742Z,15.85
2022-11-14T23:46:14.114Z,15.83
2022-11-14T23:51:18.407Z,15.82
2022-11-14T23:56:22.524Z,15.81
